KHRO

Boone County Airport

Harrison, Arkansas, USA
METAR KHRO 210353Z AUTO 26008KT 10SM CLR 21/18 A2995 RMK AO2 SLP129 T02060178
Observed Flight Rules
Aug-21 @ 03:53 UTC (18 minutes ago) Visual Flight Rules
Wind Visibility Clouds
260° at 8 knots 10 miles
  • Clear skies
Temperatures Readings
Current 21°C / 70°F
Dewpoint 18°C / 64°F
Humidity 83%
Altimeter 29.95" Hg
Pressure 1012.9 hPa
Elevation 417
METAR KHRO 210353Z AUTO 26008KT 10SM CLR 21/18 A2995 RMK AO2 SLP129 T02060178
Observed Flight Rules
Aug-21 @ 03:53 UTC
(18 minutes ago)
VFR
Wind Visibility
260° at 8 knots 10 miles
Clouds
  • Clear skies
Temperature Dewpoint
21°C / 70°F 18°C / 64°F
Humidity Altimeter Pressure
83% 29.95" Hg 1012.9 hPa